Wichita Mid Continent Airport
KICT : now visible

Airfield :











YOU CAN JOIN US ON...

 
LOGIN :

Register | Disclaimer

   EN    FR    IT 

 









Legend :    VFR   Marginal VFR   IFR   Intensive IFR   Very Intensive IFR
Visi :
Ceiling :
>= 8 km
>= 3000ft
5 to 8 km
1000 to 3000 ft
1500m to 5 km
500 to 1000 ft
800 to 1500m
200 to 500 ft
< 800m
< 200 ft
Symbols :   Thunderstorms  Fog  Heavy snow  Heavy precipitations  Wind > 20 kt







- Airport Elevation : 1333 ft
- IATA code : ICT


KICT - Wichita Mid Continent

CURRENT METAR :
  • 221053Z 13005KT 10SM FEW012 BKN060 BKN110 OVC150 21/19 A2998 RMK AO2 LTG DSNT S AND SW SLP135 OCNL LTGICCC DSNT SE-SW CB DSNT SE-SW MOV SE T02110189

EXPIRED METARs :
  • 220953Z 33007KT 10SM FEW070 BKN110 OVC150 21/19 A2996 RMK AO2 TSE39 SLP128 OCNL LTGICCC DSNT SE-S AND NW CB DSNT SE-S AND NW MOV SE T02110189
  • 220940Z 05006KT 10SM FEW070 BKN110 OVC150 21/19 A2995 RMK AO2 TSE39 OCNL LTGICCC DSNT SE-S AND NW CB DSNT SE-S AND NW MOV SE T02110189
  • 220853Z 12007KT 10SM TS SCT065CB BKN080 BKN120 OVC150 21/19 A2994 RMK AO2 LTG DSNT ALQDS RAE25 SLP121 FRQ LTGICCCCG VC E-S AND NW TS VC E-S AND NW MOV SE P0001 60001 T02110189 58005

TAF KICT
Valid from the 22 at 11:00 until the 23 at 06:00 UTC


221000Z 2211/2306 VRB07KT P6SM VCSH SCT070 OVC130
FM222300 08013KT P6SM SCT025 OVC130
FM230200 11013KT P6SM OVC100
No reported NOTAMs for that airfield.



MET'MAP, your aeronautical weather chart ! - Copyright ORBIFLY December 2007 - Disclaimer

ORBIFLY MET'MAP TEAM :

Programming & Development : Alexandra Zaïnal
Concept & Development : Baudouin d'Aumeries
Co-Development & Prog : Marc-Olivier Méhu
Technical & hardware support : Manuel Goepfert

Contact : metmap@orbifly.com




SOURCES & CREDITS :

   NOAA       Earth
Advisory